createdAt,value
2019-05-18T00:01:42.276Z,50.50
2019-05-18T00:04:11.608Z,50.50
2019-05-18T00:06:40.875Z,51.20
2019-05-18T00:09:10.187Z,50.80
2019-05-18T00:11:39.480Z,50.70
2019-05-18T00:14:08.867Z,50.60
2019-05-18T00:16:38.347Z,50.70
2019-05-18T00:19:07.716Z,50.60
2019-05-18T00:21:37.023Z,50.50
2019-05-18T00:24:06.482Z,50.40
2019-05-18T00:26:35.760Z,50.70
2019-05-18T00:29:05.146Z,50.70
2019-05-18T00:31:34.480Z,50.50
2019-05-18T00:34:03.911Z,50.40
2019-05-18T00:36:33.258Z,50.50
2019-05-18T00:39:02.577Z,50.50
2019-05-18T00:41:31.787Z,50.60
2019-05-18T00:44:01.157Z,50.60
2019-05-18T00:46:30.485Z,50.50
2019-05-18T00:49:00.618Z,50.40
2019-05-18T00:51:30.360Z,50.50
2019-05-18T00:53:59.762Z,50.90
2019-05-18T00:56:29.119Z,50.80
2019-05-18T00:58:58.449Z,50.90
2019-05-18T01:01:27.817Z,51.00
2019-05-18T01:03:57.011Z,51.00
2019-05-18T01:06:26.323Z,50.60
2019-05-18T01:08:55.694Z,51.10
2019-05-18T01:11:24.996Z,51.00
2019-05-18T01:13:54.339Z,51.00
2019-05-18T01:16:23.761Z,50.90
2019-05-18T01:18:53.136Z,51.10
2019-05-18T01:21:22.483Z,51.10
2019-05-18T01:23:54.935Z,51.20
2019-05-18T01:26:24.317Z,51.40
2019-05-18T01:28:57.406Z,51.60
2019-05-18T01:31:26.833Z,51.70
2019-05-18T01:33:56.160Z,51.30
2019-05-18T01:36:25.393Z,51.00
2019-05-18T01:38:54.705Z,51.10
2019-05-18T01:41:24.186Z,51.00
2019-05-18T01:43:53.541Z,51.80
2019-05-18T01:46:22.863Z,51.60
2019-05-18T01:48:52.173Z,51.60
2019-05-18T01:51:21.367Z,51.80
2019-05-18T01:53:50.783Z,51.70
2019-05-18T01:56:20.019Z,51.80
2019-05-18T01:58:49.331Z,51.60
2019-05-18T02:01:18.720Z,51.80
2019-05-18T02:03:47.943Z,52.00
2019-05-18T02:06:17.285Z,52.00
2019-05-18T02:08:46.644Z,52.20
2019-05-18T02:11:15.961Z,51.90
2019-05-18T02:13:45.316Z,51.90
2019-05-18T02:16:14.744Z,51.60
2019-05-18T02:18:44.124Z,51.80
2019-05-18T02:21:13.562Z,51.70
2019-05-18T02:23:42.936Z,53.10
2019-05-18T02:26:12.228Z,51.80
2019-05-18T02:28:41.746Z,51.80
2019-05-18T02:31:11.130Z,51.80
2019-05-18T02:33:40.460Z,51.90
2019-05-18T02:36:09.827Z,51.70
2019-05-18T02:38:39.282Z,51.30
2019-05-18T02:41:08.674Z,51.70
2019-05-18T02:43:38.026Z,51.80
2019-05-18T02:46:07.366Z,51.70
2019-05-18T02:48:49.026Z,51.70
2019-05-18T02:51:11.157Z,51.90
2019-05-18T02:53:38.627Z,52.10
2019-05-18T02:56:07.937Z,51.90
2019-05-18T02:58:37.259Z,52.20
2019-05-18T03:01:06.691Z,52.20
2019-05-18T03:03:36.106Z,52.00
2019-05-18T03:06:05.683Z,52.80
2019-05-18T03:08:34.955Z,54.70
2019-05-18T03:11:04.619Z,52.90
2019-05-18T03:13:34.052Z,52.70
2019-05-18T03:16:03.501Z,52.70
2019-05-18T03:18:32.875Z,52.60
2019-05-18T03:21:02.266Z,52.60
2019-05-18T03:23:31.615Z,52.70
2019-05-18T03:26:00.936Z,52.50
2019-05-18T03:28:30.307Z,52.30
2019-05-18T03:30:59.682Z,52.50
2019-05-18T03:33:30.378Z,52.60
2019-05-18T03:36:00.040Z,54.10
2019-05-18T03:38:29.442Z,53.30
2019-05-18T03:40:58.807Z,53.60
2019-05-18T03:43:28.152Z,53.60
2019-05-18T03:45:57.558Z,52.60
2019-05-18T03:48:26.860Z,52.60
2019-05-18T03:50:56.211Z,52.10
2019-05-18T03:53:25.576Z,52.30
2019-05-18T03:55:54.886Z,52.40
2019-05-18T03:58:24.280Z,53.10
2019-05-18T04:00:53.580Z,53.10
2019-05-18T04:03:22.957Z,52.90
2019-05-18T04:05:52.722Z,52.60
2019-05-18T04:08:22.146Z,53.20
2019-05-18T04:10:51.537Z,52.70
2019-05-18T04:13:21.116Z,52.70
2019-05-18T04:15:50.404Z,54.10
2019-05-18T04:18:19.687Z,54.70
2019-05-18T04:20:49.092Z,53.30
2019-05-18T04:23:18.372Z,53.90
2019-05-18T04:25:47.859Z,53.30
2019-05-18T04:28:17.156Z,52.70
2019-05-18T04:30:46.489Z,52.50
2019-05-18T04:33:15.869Z,52.70
2019-05-18T04:35:45.225Z,53.20
2019-05-18T04:38:14.614Z,57.40
2019-05-18T04:40:43.946Z,55.10
2019-05-18T04:43:13.185Z,53.90
2019-05-18T04:45:42.444Z,53.20
2019-05-18T04:48:11.746Z,53.40
2019-05-18T04:50:41.111Z,53.70
2019-05-18T04:53:10.355Z,54.10
2019-05-18T04:55:39.785Z,54.20
2019-05-18T04:58:09.074Z,53.90
2019-05-18T05:00:38.438Z,53.10
2019-05-18T05:03:07.842Z,52.70
2019-05-18T05:05:37.237Z,53.00
2019-05-18T05:08:06.712Z,53.40
2019-05-18T05:10:36.028Z,55.30
2019-05-18T05:13:05.394Z,57.50
2019-05-18T05:15:34.844Z,55.60
2019-05-18T05:18:04.347Z,56.30
2019-05-18T05:20:33.765Z,56.80
2019-05-18T05:23:03.238Z,55.20
2019-05-18T05:25:32.766Z,54.60
2019-05-18T05:28:02.164Z,54.00
2019-05-18T05:30:31.655Z,54.30
2019-05-18T05:33:00.940Z,54.60
2019-05-18T05:35:30.379Z,53.70
2019-05-18T05:37:59.785Z,54.10
2019-05-18T05:40:29.085Z,54.30
2019-05-18T05:42:58.388Z,54.20
2019-05-18T05:45:27.663Z,53.60
2019-05-18T05:47:57.398Z,53.50
2019-05-18T05:50:35.210Z,53.90
2019-05-18T05:52:57.898Z,54.40
2019-05-18T05:55:27.256Z,55.70
2019-05-18T05:57:56.619Z,54.80
2019-05-18T06:00:25.973Z,56.70
2019-05-18T06:02:55.283Z,56.80
2019-05-18T06:05:24.608Z,57.80
2019-05-18T06:07:56.562Z,55.00
2019-05-18T06:10:25.981Z,57.80
2019-05-18T06:12:55.439Z,56.20
2019-05-18T06:15:24.918Z,57.20
2019-05-18T06:17:54.334Z,56.40
2019-05-18T06:20:23.687Z,57.50
2019-05-18T06:22:53.293Z,57.70
2019-05-18T06:25:22.805Z,55.80
2019-05-18T06:27:52.091Z,55.10
2019-05-18T06:30:21.590Z,56.00
2019-05-18T06:32:51.061Z,56.60
2019-05-18T06:35:21.392Z,55.60
2019-05-18T06:37:50.972Z,56.00
2019-05-18T06:40:20.464Z,57.50
2019-05-18T06:42:49.877Z,57.30
2019-05-18T06:45:19.318Z,58.00
2019-05-18T06:47:48.677Z,57.70
2019-05-18T06:50:23.404Z,56.60
2019-05-18T06:52:52.809Z,55.20
2019-05-18T06:55:22.238Z,54.70
2019-05-18T06:57:52.279Z,55.60
2019-05-18T07:00:21.637Z,58.10
2019-05-18T07:02:51.041Z,56.70
2019-05-18T07:05:20.542Z,57.00
2019-05-18T07:07:51.550Z,57.30
2019-05-18T07:10:21.102Z,57.60
2019-05-18T07:12:52.454Z,56.40
2019-05-18T07:15:21.912Z,55.60
2019-05-18T07:17:51.269Z,56.30
2019-05-18T07:20:23.712Z,56.40
2019-05-18T07:22:53.181Z,56.30
2019-05-18T07:25:22.798Z,55.20
2019-05-18T07:27:53.354Z,54.60
2019-05-18T07:30:22.769Z,56.10
2019-05-18T07:32:52.431Z,54.50
2019-05-18T07:35:23.766Z,54.60
2019-05-18T07:37:53.384Z,54.10
2019-05-18T07:40:23.040Z,54.70
2019-05-18T07:42:52.572Z,54.70
2019-05-18T07:45:22.004Z,54.40
2019-05-18T07:47:51.445Z,53.40
2019-05-18T07:50:20.906Z,53.70
2019-05-18T07:52:55.130Z,53.30
2019-05-18T07:55:24.366Z,52.50
2019-05-18T07:57:56.550Z,52.40
2019-05-18T08:00:36.182Z,52.00
2019-05-18T08:03:05.678Z,52.00
2019-05-18T08:05:35.169Z,51.30
2019-05-18T08:08:04.467Z,51.30
2019-05-18T08:10:38.583Z,50.70
2019-05-18T08:13:09.226Z,50.90
2019-05-18T08:15:39.043Z,50.30
2019-05-18T08:18:08.322Z,50.10
2019-05-18T08:20:37.734Z,50.30
2019-05-18T08:23:08.447Z,50.40
2019-05-18T08:25:37.698Z,50.10
2019-05-18T08:28:07.118Z,50.00
2019-05-18T08:30:37.008Z,50.30
2019-05-18T08:33:06.535Z,49.70
2019-05-18T08:35:40.896Z,49.50
2019-05-18T08:38:32.256Z,49.80
2019-05-18T08:41:16.540Z,49.40
2019-05-18T08:43:46.116Z,49.50
2019-05-18T08:46:15.652Z,49.10
2019-05-18T08:48:44.943Z,49.10
2019-05-18T08:51:14.328Z,49.00
2019-05-18T08:53:43.698Z,49.00
2019-05-18T08:56:13.333Z,49.10
2019-05-18T08:58:42.867Z,48.80
2019-05-18T09:01:12.687Z,49.20
2019-05-18T09:03:47.381Z,49.30
2019-05-18T09:06:17.089Z,50.00
2019-05-18T09:08:46.955Z,49.30
2019-05-18T09:11:16.467Z,49.20
2019-05-18T09:13:46.026Z,49.10
2019-05-18T09:16:15.627Z,48.50
2019-05-18T09:18:47.575Z,48.40
2019-05-18T09:21:17.144Z,48.60
2019-05-18T09:23:46.691Z,48.70
2019-05-18T09:26:19.006Z,48.00
2019-05-18T09:28:48.476Z,47.80
2019-05-18T09:31:17.909Z,47.60
2019-05-18T09:33:50.090Z,48.00
2019-05-18T09:36:21.760Z,47.00
2019-05-18T09:39:07.999Z,46.70
2019-05-18T09:41:33.566Z,46.40
2019-05-18T09:44:13.655Z,45.90
2019-05-18T09:46:43.998Z,45.80
2019-05-18T09:49:15.337Z,45.70
2019-05-18T09:51:45.434Z,45.00
2019-05-18T09:54:15.260Z,45.20
2019-05-18T09:56:51.060Z,44.80
2019-05-18T09:59:30.415Z,44.50
2019-05-18T10:02:09.873Z,44.50
2019-05-18T10:04:45.853Z,43.90
2019-05-18T10:07:34.510Z,44.40
2019-05-18T10:10:14.798Z,44.00
2019-05-18T10:12:45.942Z,43.90
2019-05-18T10:15:39.951Z,44.10
2019-05-18T10:18:37.976Z,43.70
2019-05-18T10:21:17.474Z,43.40
2019-05-18T10:23:52.892Z,43.00
2019-05-18T10:26:24.455Z,41.60
2019-05-18T10:28:55.740Z,42.20
2019-05-18T10:31:25.611Z,42.60
2019-05-18T10:33:56.241Z,42.50
2019-05-18T10:36:26.307Z,42.10
2019-05-18T10:39:16.255Z,41.60
2019-05-18T10:41:52.108Z,41.30
2019-05-18T10:44:23.582Z,40.30
2019-05-18T10:47:00.113Z,40.10
2019-05-18T10:49:37.209Z,40.40
2019-05-18T10:52:06.052Z,40.70
2019-05-18T10:54:43.871Z,39.50
2019-05-18T10:57:16.798Z,40.50
2019-05-18T10:59:48.342Z,40.50
2019-05-18T11:02:17.866Z,40.10
2019-05-18T11:04:47.356Z,38.80
2019-05-18T11:07:19.351Z,39.90
2019-05-18T11:09:54.129Z,38.90
2019-05-18T11:12:27.869Z,38.30
2019-05-18T11:15:06.065Z,37.80
2019-05-18T11:17:37.614Z,39.10
2019-05-18T11:20:07.778Z,35.80
2019-05-18T11:22:37.406Z,38.30
2019-05-18T11:25:08.039Z,37.80
2019-05-18T11:27:37.785Z,37.40
2019-05-18T11:30:07.887Z,37.50
2019-05-18T11:32:41.856Z,37.70
2019-05-18T11:35:12.454Z,38.20
2019-05-18T11:37:41.975Z,37.90
2019-05-18T11:40:13.177Z,37.80
2019-05-18T11:42:49.091Z,37.00
2019-05-18T11:45:20.353Z,36.90
2019-05-18T11:47:58.073Z,37.50
2019-05-18T11:50:30.886Z,36.00
2019-05-18T11:53:07.034Z,36.30
2019-05-18T11:55:39.136Z,37.00
2019-05-18T11:58:15.334Z,36.90
2019-05-18T12:00:48.253Z,36.50
2019-05-18T12:03:18.648Z,36.70
2019-05-18T12:05:53.816Z,36.60
2019-05-18T12:08:26.332Z,36.10
2019-05-18T12:10:57.003Z,36.80
2019-05-18T12:13:35.684Z,36.00
2019-05-18T12:16:05.091Z,36.60
2019-05-18T12:18:37.723Z,37.10
2019-05-18T12:21:11.206Z,36.30
2019-05-18T12:23:40.801Z,37.00
2019-05-18T12:26:23.299Z,36.80
2019-05-18T12:28:53.066Z,37.10
2019-05-18T12:31:22.880Z,37.10
2019-05-18T12:33:53.003Z,36.50
2019-05-18T12:36:22.569Z,36.90
2019-05-18T12:38:52.083Z,36.30
2019-05-18T12:41:47.724Z,37.20
2019-05-18T12:44:17.319Z,37.30
2019-05-18T12:46:48.523Z,37.40
2019-05-18T12:49:21.508Z,37.40
2019-05-18T12:51:53.826Z,37.60
2019-05-18T12:54:30.807Z,37.70
2019-05-18T12:56:54.991Z,37.80
2019-05-18T12:59:26.707Z,38.00
2019-05-18T13:01:57.654Z,38.00
2019-05-18T13:04:27.028Z,38.10
2019-05-18T13:06:56.578Z,37.90
2019-05-18T13:09:27.876Z,38.20
2019-05-18T13:11:57.311Z,37.30
2019-05-18T13:14:28.083Z,37.90
2019-05-18T13:17:00.501Z,37.60
2019-05-18T13:19:33.260Z,37.90
2019-05-18T13:22:03.981Z,37.80
2019-05-18T13:24:44.898Z,37.90
2019-05-18T13:27:13.832Z,37.50
2019-05-18T13:29:50.447Z,37.70
2019-05-18T13:32:20.177Z,37.50
2019-05-18T13:34:51.351Z,37.20
2019-05-18T13:37:28.741Z,37.20
2019-05-18T13:39:58.618Z,36.80
2019-05-18T13:42:31.421Z,37.10
2019-05-18T13:45:02.900Z,36.80
2019-05-18T13:47:32.395Z,36.40
2019-05-18T13:50:02.032Z,36.50
2019-05-18T13:52:31.614Z,36.30
2019-05-18T13:55:04.496Z,36.50
2019-05-18T13:57:35.647Z,36.20
2019-05-18T14:00:07.200Z,36.70
2019-05-18T14:02:36.881Z,36.40
2019-05-18T14:05:12.332Z,36.30
2019-05-18T14:07:44.397Z,36.50
2019-05-18T14:10:14.205Z,35.70
2019-05-18T14:12:46.112Z,36.10
2019-05-18T14:15:15.819Z,36.00
2019-05-18T14:17:45.287Z,36.30
2019-05-18T14:20:31.967Z,36.10
2019-05-18T14:23:04.490Z,36.00
2019-05-18T14:25:37.661Z,36.10
2019-05-18T14:28:09.864Z,36.10
2019-05-18T14:30:43.489Z,35.90
2019-05-18T14:33:12.969Z,36.10
2019-05-18T14:35:45.661Z,35.80
2019-05-18T14:38:15.123Z,35.80
2019-05-18T14:40:46.068Z,35.40
2019-05-18T14:43:15.461Z,36.10
2019-05-18T14:45:45.054Z,35.90
2019-05-18T14:48:14.372Z,35.70
2019-05-18T14:50:45.076Z,36.00
2019-05-18T14:53:14.618Z,36.10
2019-05-18T14:55:44.153Z,35.80
2019-05-18T14:58:13.604Z,36.10
2019-05-18T15:00:43.373Z,36.00
2019-05-18T15:03:12.883Z,35.60
2019-05-18T15:05:42.292Z,35.40
2019-05-18T15:08:11.862Z,35.60
2019-05-18T15:10:41.305Z,36.50
2019-05-18T15:13:13.497Z,36.20
2019-05-18T15:15:42.747Z,36.10
2019-05-18T15:18:12.229Z,36.20
2019-05-18T15:20:41.830Z,36.10
2019-05-18T15:23:11.290Z,36.30
2019-05-18T15:25:50.145Z,36.40
2019-05-18T15:28:11.843Z,36.50
2019-05-18T15:30:41.156Z,36.60
2019-05-18T15:33:10.432Z,36.40
2019-05-18T15:35:39.787Z,36.60
2019-05-18T15:38:11.795Z,36.70
2019-05-18T15:40:41.171Z,36.50
2019-05-18T15:43:12.469Z,36.80
2019-05-18T15:45:41.874Z,36.90
2019-05-18T15:48:11.379Z,37.30
2019-05-18T15:50:40.905Z,36.60
2019-05-18T15:53:10.336Z,37.00
2019-05-18T15:55:39.876Z,36.80
2019-05-18T15:58:09.362Z,37.20
2019-05-18T16:00:38.918Z,37.00
2019-05-18T16:03:13.055Z,37.40
2019-05-18T16:05:42.516Z,37.50
2019-05-18T16:08:11.897Z,37.40
2019-05-18T16:10:41.167Z,37.60
2019-05-18T16:13:10.467Z,37.60
2019-05-18T16:15:39.783Z,38.10
2019-05-18T16:18:09.080Z,37.60
2019-05-18T16:20:38.405Z,37.60
2019-05-18T16:23:07.764Z,37.60
2019-05-18T16:25:39.285Z,37.70
2019-05-18T16:28:16.038Z,37.70
2019-05-18T16:30:45.858Z,37.90
2019-05-18T16:33:15.744Z,38.10
2019-05-18T16:35:46.020Z,38.10
2019-05-18T16:38:15.484Z,38.30
2019-05-18T16:40:45.037Z,38.10
2019-05-18T16:43:14.686Z,38.20
2019-05-18T16:45:50.192Z,38.40
2019-05-18T16:48:19.845Z,38.30
2019-05-18T16:50:51.509Z,38.30
2019-05-18T16:53:20.863Z,38.50
2019-05-18T16:55:53.547Z,38.30
2019-05-18T16:58:30.261Z,39.10
2019-05-18T17:00:59.652Z,38.40
2019-05-18T17:03:36.534Z,38.70
2019-05-18T17:06:12.225Z,38.70
2019-05-18T17:08:41.697Z,38.90
2019-05-18T17:11:11.208Z,39.00
2019-05-18T17:13:40.545Z,38.90
2019-05-18T17:16:09.897Z,39.00
2019-05-18T17:18:39.299Z,39.30
2019-05-18T17:21:11.273Z,39.30
2019-05-18T17:23:45.649Z,39.50
2019-05-18T17:26:16.287Z,39.40
2019-05-18T17:28:48.507Z,39.50
2019-05-18T17:31:20.845Z,39.30
2019-05-18T17:33:50.220Z,39.60
2019-05-18T17:36:21.072Z,39.90
2019-05-18T17:38:52.913Z,40.20
2019-05-18T17:41:25.880Z,40.20
2019-05-18T17:43:55.289Z,40.10
2019-05-18T17:46:24.689Z,40.40
2019-05-18T17:48:54.022Z,40.60
2019-05-18T17:51:23.263Z,40.70
2019-05-18T17:53:54.264Z,40.90
2019-05-18T17:56:23.511Z,40.80
2019-05-18T17:58:52.963Z,41.00
2019-05-18T18:01:22.351Z,41.00
2019-05-18T18:03:51.709Z,41.20
2019-05-18T18:06:21.010Z,41.20
2019-05-18T18:08:50.213Z,41.20
2019-05-18T18:11:19.406Z,41.60
2019-05-18T18:13:48.723Z,41.70
2019-05-18T18:16:18.083Z,41.50
2019-05-18T18:18:47.469Z,41.40
2019-05-18T18:21:18.638Z,41.70
2019-05-18T18:23:54.201Z,41.70
2019-05-18T18:26:19.134Z,41.80
2019-05-18T18:28:48.462Z,42.10
2019-05-18T18:31:17.810Z,41.70
2019-05-18T18:33:47.001Z,41.70
2019-05-18T18:36:16.300Z,42.00
2019-05-18T18:38:45.612Z,42.00
2019-05-18T18:41:16.624Z,42.10
2019-05-18T18:43:47.976Z,42.30
2019-05-18T18:46:17.345Z,42.20
2019-05-18T18:48:46.615Z,42.40
2019-05-18T18:51:16.295Z,42.40
2019-05-18T18:53:45.574Z,42.40
2019-05-18T18:56:18.382Z,43.00
2019-05-18T18:58:47.856Z,42.60
2019-05-18T19:01:17.179Z,42.50
2019-05-18T19:03:46.620Z,42.30
2019-05-18T19:06:15.871Z,42.80
2019-05-18T19:08:45.074Z,43.00
2019-05-18T19:11:14.443Z,42.90
2019-05-18T19:13:45.855Z,42.40
2019-05-18T19:16:14.846Z,42.70
2019-05-18T19:18:44.278Z,42.90
2019-05-18T19:21:13.558Z,43.00
2019-05-18T19:23:42.853Z,43.30
2019-05-18T19:26:12.263Z,43.00
2019-05-18T19:28:42.343Z,43.10
2019-05-18T19:31:11.546Z,43.60
2019-05-18T19:33:40.988Z,43.40
2019-05-18T19:36:10.265Z,43.70
2019-05-18T19:38:39.596Z,43.50
2019-05-18T19:41:08.835Z,43.50
2019-05-18T19:43:38.122Z,43.60
2019-05-18T19:46:07.428Z,44.10
2019-05-18T19:48:36.855Z,44.40
2019-05-18T19:51:06.091Z,44.40
2019-05-18T19:53:35.503Z,44.30
2019-05-18T19:56:04.720Z,44.10
2019-05-18T19:58:34.112Z,44.00
2019-05-18T20:01:03.411Z,44.00
2019-05-18T20:03:32.869Z,43.90
2019-05-18T20:06:02.243Z,44.30
2019-05-18T20:08:31.453Z,44.10
2019-05-18T20:11:00.789Z,44.20
2019-05-18T20:13:30.187Z,44.70
2019-05-18T20:15:59.463Z,44.80
2019-05-18T20:18:28.889Z,45.00
2019-05-18T20:20:58.241Z,45.10
2019-05-18T20:23:27.543Z,44.90
2019-05-18T20:25:56.948Z,45.50
2019-05-18T20:28:26.145Z,45.50
2019-05-18T20:30:55.459Z,45.00
2019-05-18T20:33:24.790Z,45.30
2019-05-18T20:35:54.061Z,45.60
2019-05-18T20:38:23.347Z,45.80
2019-05-18T20:40:52.686Z,45.40
2019-05-18T20:43:22.019Z,45.50
2019-05-18T20:45:52.433Z,45.00
2019-05-18T20:48:21.873Z,45.40
2019-05-18T20:50:51.211Z,45.00
2019-05-18T20:53:20.483Z,45.70
2019-05-18T20:55:49.915Z,45.20
2019-05-18T20:58:19.269Z,45.50
2019-05-18T21:00:54.312Z,45.60
2019-05-18T21:03:23.881Z,45.30
2019-05-18T21:05:53.326Z,45.90
2019-05-18T21:08:22.807Z,45.70
2019-05-18T21:10:52.229Z,46.60
2019-05-18T21:13:21.564Z,46.30
2019-05-18T21:15:50.947Z,46.00
2019-05-18T21:18:20.368Z,45.80
2019-05-18T21:20:49.610Z,45.70
2019-05-18T21:23:18.886Z,46.10
2019-05-18T21:25:48.052Z,46.40
2019-05-18T21:28:17.413Z,46.10
2019-05-18T21:30:46.806Z,46.20
2019-05-18T21:33:16.130Z,46.10
2019-05-18T21:35:46.608Z,45.90
2019-05-18T21:38:19.870Z,46.20
2019-05-18T21:40:49.174Z,46.20
2019-05-18T21:43:18.409Z,46.20
2019-05-18T21:45:47.637Z,46.50
2019-05-18T21:48:16.914Z,46.40
2019-05-18T21:50:46.959Z,46.40
2019-05-18T21:53:16.402Z,46.40
2019-05-18T21:55:45.801Z,46.20
2019-05-18T21:58:15.133Z,46.70
2019-05-18T22:00:47.456Z,46.60
2019-05-18T22:03:16.784Z,46.80
2019-05-18T22:05:47.749Z,46.70
2019-05-18T22:08:17.047Z,46.80
2019-05-18T22:10:46.407Z,47.00
2019-05-18T22:13:15.625Z,47.00
2019-05-18T22:15:44.986Z,47.20
2019-05-18T22:18:23.985Z,47.10
2019-05-18T22:20:45.209Z,47.10
2019-05-18T22:23:14.602Z,47.40
2019-05-18T22:25:43.956Z,47.10
2019-05-18T22:28:13.341Z,47.20
2019-05-18T22:30:42.729Z,47.80
2019-05-18T22:33:14.142Z,47.80
2019-05-18T22:35:43.491Z,48.70
2019-05-18T22:38:12.672Z,47.80
2019-05-18T22:40:41.958Z,48.00
2019-05-18T22:43:11.283Z,47.80
2019-05-18T22:45:40.570Z,47.90
2019-05-18T22:48:09.948Z,48.20
2019-05-18T22:50:39.232Z,48.40
2019-05-18T22:53:08.410Z,47.80
2019-05-18T22:55:37.918Z,48.40
2019-05-18T22:58:07.194Z,49.10
2019-05-18T23:00:36.575Z,48.90
2019-05-18T23:03:05.903Z,49.50
2019-05-18T23:05:35.375Z,49.10
2019-05-18T23:08:04.590Z,49.40
2019-05-18T23:10:33.882Z,48.90
2019-05-18T23:13:03.263Z,49.10
2019-05-18T23:15:32.588Z,50.50
2019-05-18T23:18:01.985Z,49.60
2019-05-18T23:20:31.232Z,50.00
2019-05-18T23:23:00.607Z,50.20
2019-05-18T23:25:29.908Z,50.00
2019-05-18T23:27:59.320Z,49.60
2019-05-18T23:30:28.667Z,49.10
2019-05-18T23:32:58.059Z,49.70
2019-05-18T23:35:27.361Z,49.20
2019-05-18T23:37:56.687Z,49.20
2019-05-18T23:40:25.974Z,49.00
2019-05-18T23:42:55.369Z,49.20
2019-05-18T23:45:24.760Z,49.20
2019-05-18T23:47:54.124Z,49.50
2019-05-18T23:50:23.492Z,49.30
2019-05-18T23:52:54.303Z,49.60
2019-05-18T23:55:23.593Z,49.70
2019-05-18T23:57:52.897Z,49.70
